createdAt,value
2018-07-31T05:42:16.689Z,7.17
2018-07-31T05:44:45.366Z,11.40
2018-07-31T05:47:14.466Z,8.27
2018-07-31T05:49:43.452Z,9.27
2018-07-31T05:52:12.942Z,7.83
2018-07-31T05:54:42.344Z,8.07
2018-07-31T05:57:11.561Z,4.47
2018-07-31T05:59:40.751Z,6.70
2018-07-31T06:02:09.944Z,4.90
2018-07-31T06:04:39.483Z,7.87
2018-07-31T06:07:08.320Z,5.17
2018-07-31T06:09:37.465Z,10.87
2018-07-31T06:12:06.534Z,12.87
2018-07-31T06:14:35.661Z,7.93
2018-07-31T06:17:04.916Z,3.40
2018-07-31T06:19:33.760Z,4.90
2018-07-31T06:22:02.911Z,9.23
2018-07-31T06:24:31.975Z,5.60
2018-07-31T06:27:00.762Z,7.07
2018-07-31T06:29:30.136Z,5.93
2018-07-31T06:31:59.198Z,4.00
2018-07-31T06:34:28.743Z,3.97
2018-07-31T06:36:58.158Z,5.17
2018-07-31T06:39:27.670Z,3.93
2018-07-31T06:41:57.243Z,5.03
2018-07-31T06:44:26.432Z,4.07
2018-07-31T06:46:55.336Z,4.60
2018-07-31T06:49:24.118Z,3.00
2018-07-31T06:51:53.425Z,4.63
2018-07-31T06:54:22.947Z,4.57
2018-07-31T06:56:52.044Z,6.70
2018-07-31T06:59:20.820Z,6.23
2018-07-31T07:01:49.932Z,5.70
2018-07-31T07:04:18.930Z,5.97
2018-07-31T07:06:47.922Z,7.47
2018-07-31T07:09:16.969Z,6.23
2018-07-31T07:11:46.622Z,9.83
2018-07-31T07:14:16.144Z,10.50
2018-07-31T07:16:45.637Z,13.87
2018-07-31T07:19:14.820Z,16.17
2018-07-31T07:21:43.510Z,11.27
2018-07-31T07:24:12.399Z,7.50
2018-07-31T07:26:41.783Z,8.90
2018-07-31T07:29:10.518Z,7.73
2018-07-31T07:31:39.246Z,5.37
2018-07-31T07:34:08.596Z,10.10
2018-07-31T07:36:37.561Z,7.67
2018-07-31T07:39:09.735Z,11.27
2018-07-31T07:41:38.664Z,9.57
2018-07-31T07:44:08.232Z,7.53
2018-07-31T07:46:36.936Z,8.93
2018-07-31T07:49:05.671Z,10.67
2018-07-31T07:51:34.803Z,10.17
2018-07-31T07:54:04.021Z,9.60
2018-07-31T07:56:33.582Z,9.23
2018-07-31T07:59:02.752Z,11.03
2018-07-31T08:01:31.472Z,9.27
2018-07-31T08:04:00.549Z,6.33
2018-07-31T08:06:30.274Z,9.03
2018-07-31T08:08:59.277Z,9.47
2018-07-31T08:11:29.132Z,7.80
2018-07-31T08:13:57.634Z,7.23
2018-07-31T08:16:27.020Z,7.93
2018-07-31T08:18:55.871Z,4.80
2018-07-31T08:21:24.943Z,8.63
2018-07-31T08:23:53.692Z,7.53
2018-07-31T08:26:22.627Z,8.63
2018-07-31T08:28:52.994Z,4.70
2018-07-31T08:31:22.411Z,5.30
2018-07-31T08:33:51.526Z,6.90
2018-07-31T08:36:20.246Z,6.50
2018-07-31T08:38:49.665Z,6.87
2018-07-31T08:41:18.868Z,9.57
2018-07-31T08:43:47.730Z,5.90
2018-07-31T08:46:16.889Z,4.50
2018-07-31T08:48:46.071Z,5.00
2018-07-31T08:51:15.240Z,4.40
2018-07-31T08:53:44.155Z,5.20
2018-07-31T08:56:13.191Z,4.53
2018-07-31T08:58:42.684Z,4.70
2018-07-31T09:01:12.112Z,4.40
2018-07-31T09:03:41.200Z,4.43
2018-07-31T09:06:10.711Z,5.20
2018-07-31T09:08:39.955Z,6.87
2018-07-31T09:11:09.294Z,7.07
2018-07-31T09:13:38.787Z,6.10
2018-07-31T09:16:07.592Z,6.63
2018-07-31T09:18:37.750Z,6.87
2018-07-31T09:21:06.848Z,8.87
2018-07-31T09:23:36.280Z,4.90
2018-07-31T09:26:05.471Z,6.73
2018-07-31T09:28:34.490Z,6.07
2018-07-31T09:31:08.507Z,8.23
2018-07-31T09:33:38.100Z,6.40
2018-07-31T09:36:07.074Z,12.20
2018-07-31T09:38:35.920Z,11.33
2018-07-31T09:41:05.121Z,10.70
2018-07-31T09:43:34.259Z,9.37
2018-07-31T09:46:03.534Z,10.90
2018-07-31T09:48:33.126Z,9.70
2018-07-31T09:51:02.582Z,10.13
2018-07-31T09:53:31.642Z,9.67
2018-07-31T09:56:01.122Z,11.63
2018-07-31T09:58:30.741Z,14.70
2018-07-31T10:01:04.807Z,9.40
2018-07-31T10:03:33.977Z,12.77
2018-07-31T10:06:03.192Z,6.60
2018-07-31T10:08:32.378Z,8.50
2018-07-31T10:11:01.637Z,8.07
2018-07-31T10:13:30.703Z,10.47
2018-07-31T10:16:00.192Z,8.10
2018-07-31T10:18:29.643Z,11.30
2018-07-31T10:20:58.826Z,5.97
2018-07-31T10:23:28.391Z,8.97
2018-07-31T10:25:57.427Z,8.73
2018-07-31T10:28:26.550Z,6.63
2018-07-31T10:30:55.780Z,11.17
2018-07-31T10:33:24.803Z,9.30
2018-07-31T10:35:54.053Z,10.67
2018-07-31T10:38:23.538Z,12.50
2018-07-31T10:40:52.779Z,11.57
2018-07-31T10:43:22.274Z,9.40
2018-07-31T10:45:51.285Z,7.93
2018-07-31T10:48:20.322Z,8.67
2018-07-31T10:50:49.840Z,7.23
2018-07-31T10:53:18.691Z,5.87
2018-07-31T10:55:47.726Z,7.87
2018-07-31T10:58:17.170Z,6.07
2018-07-31T11:00:46.791Z,6.03
2018-07-31T11:03:15.852Z,7.57
2018-07-31T11:05:44.574Z,7.80
2018-07-31T11:08:13.411Z,4.57
2018-07-31T11:10:42.950Z,8.43
2018-07-31T11:13:12.448Z,4.90
2018-07-31T11:15:41.441Z,4.77
2018-07-31T11:18:10.591Z,7.00
2018-07-31T11:20:39.646Z,8.00
2018-07-31T11:23:08.468Z,5.13
2018-07-31T11:25:37.825Z,7.17
2018-07-31T11:28:07.504Z,5.37
2018-07-31T11:30:36.726Z,5.43
2018-07-31T11:33:06.005Z,2.90
2018-07-31T11:35:35.306Z,4.37
2018-07-31T11:38:04.234Z,6.93
2018-07-31T11:40:33.734Z,5.67
2018-07-31T11:43:03.166Z,3.80
2018-07-31T11:45:32.325Z,4.83
2018-07-31T11:48:02.102Z,4.53
2018-07-31T11:50:31.309Z,6.87
2018-07-31T11:53:00.445Z,4.57
2018-07-31T11:55:29.569Z,5.47
2018-07-31T11:57:58.620Z,8.60
2018-07-31T12:00:27.763Z,4.87
2018-07-31T12:02:57.232Z,4.93
2018-07-31T12:05:26.525Z,6.00
2018-07-31T12:07:56.064Z,5.27
2018-07-31T12:10:25.198Z,3.40
2018-07-31T12:12:54.598Z,5.70
2018-07-31T12:15:24.002Z,5.33
2018-07-31T12:17:53.176Z,3.70
2018-07-31T12:20:22.676Z,5.37
2018-07-31T12:22:52.152Z,4.93
2018-07-31T12:25:21.253Z,7.13
2018-07-31T12:27:50.665Z,6.33
2018-07-31T12:30:19.564Z,3.87
2018-07-31T12:32:49.039Z,5.17
2018-07-31T12:35:18.251Z,5.70
2018-07-31T12:37:47.498Z,4.60
2018-07-31T12:40:16.249Z,6.80
2018-07-31T12:42:45.514Z,4.13
2018-07-31T12:45:14.248Z,4.33
2018-07-31T12:47:43.050Z,4.43
2018-07-31T12:50:12.453Z,3.97
2018-07-31T12:52:41.386Z,5.07
2018-07-31T12:55:10.427Z,6.60
2018-07-31T12:57:39.642Z,3.87
2018-07-31T13:00:09.099Z,5.53
2018-07-31T13:02:38.197Z,5.50
2018-07-31T13:05:07.835Z,4.33
2018-07-31T13:07:36.898Z,4.10
2018-07-31T13:10:06.080Z,3.47
2018-07-31T13:12:35.137Z,4.97
2018-07-31T13:15:03.897Z,6.63
2018-07-31T13:17:32.963Z,5.73
2018-07-31T13:20:02.187Z,5.47
2018-07-31T13:22:31.172Z,5.87
2018-07-31T13:25:00.376Z,5.73
2018-07-31T13:27:29.514Z,4.47
2018-07-31T13:29:58.611Z,3.23
2018-07-31T13:32:28.080Z,2.47
2018-07-31T13:34:56.555Z,3.73
2018-07-31T13:37:25.376Z,3.80
2018-07-31T13:39:54.126Z,3.87
2018-07-31T13:42:23.545Z,4.20
2018-07-31T13:44:52.078Z,2.70
2018-07-31T13:47:20.891Z,3.13
2018-07-31T13:49:49.637Z,2.30
2018-07-31T13:52:18.848Z,6.03
2018-07-31T13:54:48.091Z,4.33
2018-07-31T13:57:17.537Z,1.83
2018-07-31T13:59:46.680Z,3.40
2018-07-31T14:02:16.246Z,3.13
2018-07-31T14:04:44.985Z,2.87
2018-07-31T14:07:14.146Z,4.50
2018-07-31T14:09:43.448Z,3.93
2018-07-31T14:12:12.183Z,3.30
2018-07-31T14:14:41.651Z,3.47
2018-07-31T14:17:11.088Z,3.97
2018-07-31T14:19:40.251Z,3.50
2018-07-31T14:22:09.296Z,2.93
2018-07-31T14:24:38.011Z,4.77
2018-07-31T14:27:07.087Z,2.67
2018-07-31T14:29:36.482Z,6.20
2018-07-31T14:32:05.356Z,4.20
2018-07-31T14:34:34.355Z,4.13
2018-07-31T14:37:03.835Z,2.27
2018-07-31T14:39:32.567Z,4.13
2018-07-31T14:42:01.811Z,2.30
2018-07-31T14:44:30.568Z,3.07
2018-07-31T14:46:59.279Z,1.67
2018-07-31T14:49:28.892Z,1.60
2018-07-31T14:51:58.055Z,2.87
2018-07-31T14:54:27.589Z,2.03
2018-07-31T14:56:57.128Z,2.00
2018-07-31T14:59:26.248Z,2.60
2018-07-31T15:01:54.972Z,1.80
2018-07-31T15:04:24.503Z,1.67
2018-07-31T15:06:53.632Z,2.73
2018-07-31T15:09:22.633Z,1.60
2018-07-31T15:11:51.364Z,2.50
2018-07-31T15:14:20.209Z,4.80
2018-07-31T15:16:49.051Z,3.03
2018-07-31T15:19:18.267Z,1.30
2018-07-31T15:21:46.976Z,2.57
2018-07-31T15:24:16.044Z,3.10
2018-07-31T15:26:45.072Z,1.53
2018-07-31T15:29:14.520Z,3.23
2018-07-31T15:31:43.714Z,3.50
2018-07-31T15:34:12.826Z,4.70
2018-07-31T15:36:41.575Z,2.73
2018-07-31T15:39:12.884Z,2.30
2018-07-31T15:41:42.515Z,3.13
2018-07-31T15:44:11.651Z,2.50
2018-07-31T15:46:40.364Z,5.10
2018-07-31T15:49:09.424Z,2.57
2018-07-31T15:51:38.927Z,2.40
2018-07-31T15:54:08.118Z,1.67
2018-07-31T15:56:37.093Z,2.40
2018-07-31T15:59:06.506Z,3.37
2018-07-31T16:01:35.332Z,1.90
2018-07-31T16:04:04.511Z,1.70
2018-07-31T16:06:33.562Z,2.37
2018-07-31T16:09:03.039Z,1.43
2018-07-31T16:11:32.232Z,3.57
2018-07-31T16:14:01.614Z,2.67
2018-07-31T16:16:30.775Z,2.57
2018-07-31T16:18:59.190Z,3.67
2018-07-31T16:21:28.063Z,3.23
2018-07-31T16:23:57.215Z,2.77
2018-07-31T16:26:26.291Z,3.20
2018-07-31T16:28:55.009Z,2.53
2018-07-31T16:31:23.738Z,4.47
2018-07-31T16:33:53.961Z,4.20
2018-07-31T16:36:23.601Z,2.70
2018-07-31T16:38:52.819Z,4.10
2018-07-31T16:41:22.432Z,2.97
2018-07-31T16:43:51.610Z,3.30
2018-07-31T16:46:20.978Z,3.60
2018-07-31T16:48:50.420Z,2.90
2018-07-31T16:51:19.472Z,6.03
2018-07-31T16:53:48.802Z,2.07
2018-07-31T16:56:17.901Z,2.03
2018-07-31T16:58:46.992Z,2.10
2018-07-31T17:01:15.723Z,3.70
2018-07-31T17:03:44.412Z,5.00
2018-07-31T17:06:13.478Z,2.80
2018-07-31T17:08:43.292Z,3.50
2018-07-31T17:11:12.754Z,4.03
2018-07-31T17:13:41.556Z,3.40
2018-07-31T17:16:10.709Z,5.13
2018-07-31T17:18:39.921Z,3.23
2018-07-31T17:21:09.373Z,5.17
2018-07-31T17:23:38.262Z,2.83
2018-07-31T17:26:07.753Z,3.37
2018-07-31T17:28:36.585Z,5.20
2018-07-31T17:31:05.626Z,3.37
2018-07-31T17:33:35.082Z,1.83
2018-07-31T17:36:04.634Z,2.80
2018-07-31T17:38:33.425Z,2.90
2018-07-31T17:41:02.311Z,3.60
2018-07-31T17:43:31.040Z,5.33
2018-07-31T17:46:00.448Z,2.70
2018-07-31T17:48:30.007Z,4.40
2018-07-31T17:50:59.868Z,4.40
2018-07-31T17:53:29.122Z,2.13
2018-07-31T17:55:57.614Z,4.03
2018-07-31T17:58:27.108Z,3.03
2018-07-31T18:00:56.419Z,1.83
2018-07-31T18:03:25.984Z,2.97
2018-07-31T18:05:55.234Z,3.50
2018-07-31T18:08:24.304Z,2.57
2018-07-31T18:10:53.103Z,3.90
2018-07-31T18:13:22.088Z,3.77
2018-07-31T18:15:51.211Z,2.90
2018-07-31T18:18:20.684Z,2.07
2018-07-31T18:20:50.086Z,1.60
2018-07-31T18:23:18.571Z,2.40
2018-07-31T18:25:47.486Z,2.57
2018-07-31T18:28:16.552Z,1.90
2018-07-31T18:30:46.003Z,2.47
2018-07-31T18:33:15.027Z,1.87
2018-07-31T18:35:43.832Z,4.53
2018-07-31T18:38:12.715Z,3.90
2018-07-31T18:40:42.436Z,2.43
2018-07-31T18:43:11.169Z,3.00
2018-07-31T18:45:40.251Z,3.43
2018-07-31T18:48:08.975Z,2.17
2018-07-31T18:50:38.006Z,2.53
2018-07-31T18:53:07.383Z,5.00
2018-07-31T18:55:35.788Z,1.60
2018-07-31T18:58:04.983Z,2.57
2018-07-31T19:00:33.729Z,2.37
2018-07-31T19:03:03.148Z,2.87
2018-07-31T19:05:32.257Z,2.43
2018-07-31T19:08:01.436Z,5.67
2018-07-31T19:10:30.479Z,2.57
2018-07-31T19:12:59.985Z,2.93
2018-07-31T19:15:28.975Z,6.33
2018-07-31T19:17:58.448Z,2.87
2018-07-31T19:20:27.748Z,1.50
2018-07-31T19:22:57.154Z,3.30
2018-07-31T19:25:26.252Z,4.27
2018-07-31T19:27:55.437Z,2.20
2018-07-31T19:30:24.839Z,3.70
2018-07-31T19:32:53.865Z,2.00
2018-07-31T19:35:22.825Z,3.20
2018-07-31T19:37:51.642Z,2.97
2018-07-31T19:40:20.465Z,3.73
2018-07-31T19:42:50.242Z,2.60
2018-07-31T19:45:19.264Z,3.67
2018-07-31T19:47:49.354Z,6.67
2018-07-31T19:50:18.318Z,4.50
2018-07-31T19:52:48.254Z,1.50
2018-07-31T19:55:17.893Z,5.73
2018-07-31T19:57:46.817Z,3.57
2018-07-31T20:00:16.171Z,3.70
2018-07-31T20:02:45.834Z,2.83
2018-07-31T20:05:15.097Z,5.90
2018-07-31T20:07:44.833Z,5.90
2018-07-31T20:10:14.703Z,3.60
2018-07-31T20:12:44.524Z,2.10
2018-07-31T20:15:14.907Z,2.10
2018-07-31T20:18:32.115Z,3.50
2018-07-31T20:21:01.611Z,4.27
2018-07-31T20:23:31.573Z,2.67
2018-07-31T20:26:01.231Z,4.90
2018-07-31T20:28:31.438Z,5.20
2018-07-31T20:31:01.228Z,2.63
2018-07-31T20:33:31.716Z,2.93
2018-07-31T20:36:01.571Z,3.10
2018-07-31T20:38:30.771Z,3.70
2018-07-31T20:41:00.775Z,4.90
2018-07-31T20:43:30.792Z,4.40
2018-07-31T20:46:00.877Z,4.47
2018-07-31T20:48:30.957Z,3.00
2018-07-31T20:51:00.421Z,4.60
2018-07-31T20:53:29.716Z,5.07
2018-07-31T20:55:59.255Z,5.13
2018-07-31T20:58:28.363Z,4.20
2018-07-31T21:00:57.853Z,4.93
